aviador You're here:

KMKO Decoded Metar

MUSKOGEE in OK, USA
Report Time2017-08-16 14:53:00
UTC Time2017-08-16 15:04:13
Flight Rules vfr VFR
Wind150° at 07 kt
W.Decomp.*RWY 13: 6.8 kt HW 1.7 kt RCW
RWY 18: 5.7 kt HW 4.1 kt LCW
RWY 22: 1.7 kt HW 6.8 kt LCW
W.Rank150° ranks 2
Current wind is below 150° avg. (7.2)
Visibility9999 m
Phenomena:N/A
Clouds:Few 095 Hf
Expected CloudBase > 800 ft AGL from Temp-Dew spread
CeilingNone
Temp26°C (ISA +12)
Dew Point24°C (89% RH)
QNH1013 hPa
Density Alt2,411 ft
Elevation607 ft
Report Wrong Elevation
Raw Report
KMKO 161453Z AUTO 15007KT 10SM FEW095 26/24 A2992 RMK AO2 SLP123
T02610239 51016=

Extra information for KMKO:More info

Metar Taf Metar & Taf Last 4 Metars F.Rules Stats Wind Profile Meteogram Temp Stats Airport Information Weather charts Add Link Nearby VenuesMetar ALERT Operation Metar Decoded Social comments

AIRNAV info for KMKO